sensor_id;sensor_type;location;lat;lon;timestamp;temperature;humidity
49327;DHT22;35819;44.498;0.166;2022-09-09T00:03:57;18.50;99.90
49327;DHT22;35819;44.498;0.166;2022-09-09T00:06:30;18.50;99.90
49327;DHT22;35819;44.498;0.166;2022-09-09T00:11:45;18.40;99.90
49327;DHT22;35819;44.498;0.166;2022-09-09T00:14:26;18.40;99.90
49327;DHT22;35819;44.498;0.166;2022-09-09T00:17:00;18.40;99.90
49327;DHT22;35819;44.498;0.166;2022-09-09T00:19:41;18.30;99.90
49327;DHT22;35819;44.498;0.166;2022-09-09T00:22:17;18.30;99.90
49327;DHT22;35819;44.498;0.166;2022-09-09T00:24:46;18.30;99.90
49327;DHT22;35819;44.498;0.166;2022-09-09T00:29:56;18.40;99.90
49327;DHT22;35819;44.498;0.166;2022-09-09T00:32:24;18.40;99.90
49327;DHT22;35819;44.498;0.166;2022-09-09T00:35:02;18.40;99.90
49327;DHT22;35819;44.498;0.166;2022-09-09T00:37:28;18.30;99.90
49327;DHT22;35819;44.498;0.166;2022-09-09T00:39:59;18.30;99.90
49327;DHT22;35819;44.498;0.166;2022-09-09T00:42:41;18.30;99.90
49327;DHT22;35819;44.498;0.166;2022-09-09T00:50:15;18.10;99.90
49327;DHT22;35819;44.498;0.166;2022-09-09T00:55:48;18.20;99.90
49327;DHT22;35819;44.498;0.166;2022-09-09T00:58:14;18.20;99.90
49327;DHT22;35819;44.498;0.166;2022-09-09T01:00:51;18.20;99.90
49327;DHT22;35819;44.498;0.166;2022-09-09T01:03:37;18.20;99.90
49327;DHT22;35819;44.498;0.166;2022-09-09T01:06:16;18.30;99.90
49327;DHT22;35819;44.498;0.166;2022-09-09T01:11:25;18.30;99.90
49327;DHT22;35819;44.498;0.166;2022-09-09T01:14:05;18.20;99.90
49327;DHT22;35819;44.498;0.166;2022-09-09T01:16:35;18.30;99.90
49327;DHT22;35819;44.498;0.166;2022-09-09T01:19:03;18.30;99.90
49327;DHT22;35819;44.498;0.166;2022-09-09T01:26:35;18.30;99.90
49327;DHT22;35819;44.498;0.166;2022-09-09T01:29:04;18.30;99.90
49327;DHT22;35819;44.498;0.166;2022-09-09T01:31:38;18.30;99.90
49327;DHT22;35819;44.498;0.166;2022-09-09T01:34:13;18.30;99.90
49327;DHT22;35819;44.498;0.166;2022-09-09T01:36:48;18.30;99.90
49327;DHT22;35819;44.498;0.166;2022-09-09T01:39:16;18.30;99.90
49327;DHT22;35819;44.498;0.166;2022-09-09T01:41:42;18.30;99.90
49327;DHT22;35819;44.498;0.166;2022-09-09T01:44:08;18.30;99.90
49327;DHT22;35819;44.498;0.166;2022-09-09T01:46:35;18.20;99.90
49327;DHT22;35819;44.498;0.166;2022-09-09T01:49:03;18.20;99.90
49327;DHT22;35819;44.498;0.166;2022-09-09T01:51:30;18.20;99.90
49327;DHT22;35819;44.498;0.166;2022-09-09T01:53:56;18.20;99.90
49327;DHT22;35819;44.498;0.166;2022-09-09T01:59:15;18.20;99.90
49327;DHT22;35819;44.498;0.166;2022-09-09T02:06:56;18.20;99.90
49327;DHT22;35819;44.498;0.166;2022-09-09T02:09:24;18.20;99.90
49327;DHT22;35819;44.498;0.166;2022-09-09T02:11:58;18.20;99.90
49327;DHT22;35819;44.498;0.166;2022-09-09T02:14:30;18.20;99.90
49327;DHT22;35819;44.498;0.166;2022-09-09T02:17:08;18.20;99.90
49327;DHT22;35819;44.498;0.166;2022-09-09T02:19:45;18.30;99.90
49327;DHT22;35819;44.498;0.166;2022-09-09T02:22:17;18.30;99.90
49327;DHT22;35819;44.498;0.166;2022-09-09T02:24:45;18.30;99.90
49327;DHT22;35819;44.498;0.166;2022-09-09T02:27:12;18.30;99.90
49327;DHT22;35819;44.498;0.166;2022-09-09T02:29:42;18.20;99.90
49327;DHT22;35819;44.498;0.166;2022-09-09T02:32:13;18.20;99.90
49327;DHT22;35819;44.498;0.166;2022-09-09T02:34:47;18.10;99.90
49327;DHT22;35819;44.498;0.166;2022-09-09T02:37:17;18.10;99.90
49327;DHT22;35819;44.498;0.166;2022-09-09T02:39:44;18.00;99.90
49327;DHT22;35819;44.498;0.166;2022-09-09T02:42:10;18.00;99.90
49327;DHT22;35819;44.498;0.166;2022-09-09T02:44:35;18.10;99.90
49327;DHT22;35819;44.498;0.166;2022-09-09T02:53:05;18.00;99.90
49327;DHT22;35819;44.498;0.166;2022-09-09T02:58:16;17.90;99.90
49327;DHT22;35819;44.498;0.166;2022-09-09T03:00:44;17.90;99.90
49327;DHT22;35819;44.498;0.166;2022-09-09T03:03:11;17.90;99.90
49327;DHT22;35819;44.498;0.166;2022-09-09T03:05:37;17.80;99.90
49327;DHT22;35819;44.498;0.166;2022-09-09T03:08:04;17.80;99.90
49327;DHT22;35819;44.498;0.166;2022-09-09T03:10:31;17.80;99.90
49327;DHT22;35819;44.498;0.166;2022-09-09T03:12:57;17.80;99.90
49327;DHT22;35819;44.498;0.166;2022-09-09T03:15:23;17.80;99.90
49327;DHT22;35819;44.498;0.166;2022-09-09T03:17:49;17.80;99.90
49327;DHT22;35819;44.498;0.166;2022-09-09T03:20:15;17.80;99.90
49327;DHT22;35819;44.498;0.166;2022-09-09T03:22:40;17.70;99.90
49327;DHT22;35819;44.498;0.166;2022-09-09T03:25:06;17.70;99.90
49327;DHT22;35819;44.498;0.166;2022-09-09T03:27:32;17.70;99.90
49327;DHT22;35819;44.498;0.166;2022-09-09T03:29:58;17.70;99.90
49327;DHT22;35819;44.498;0.166;2022-09-09T03:32:24;17.80;99.90
49327;DHT22;35819;44.498;0.166;2022-09-09T03:34:52;17.80;99.90
49327;DHT22;35819;44.498;0.166;2022-09-09T03:37:18;17.80;99.90
49327;DHT22;35819;44.498;0.166;2022-09-09T03:39:45;17.80;99.90
49327;DHT22;35819;44.498;0.166;2022-09-09T03:42:13;17.80;99.90
49327;DHT22;35819;44.498;0.166;2022-09-09T03:44:40;17.80;99.90
49327;DHT22;35819;44.498;0.166;2022-09-09T03:47:07;17.90;99.90
49327;DHT22;35819;44.498;0.166;2022-09-09T03:49:33;17.90;99.90
49327;DHT22;35819;44.498;0.166;2022-09-09T03:51:59;17.90;99.90
49327;DHT22;35819;44.498;0.166;2022-09-09T03:54:26;17.80;99.90
49327;DHT22;35819;44.498;0.166;2022-09-09T03:56:52;17.80;99.90
49327;DHT22;35819;44.498;0.166;2022-09-09T03:59:18;17.60;99.90
49327;DHT22;35819;44.498;0.166;2022-09-09T04:01:44;17.60;99.90
49327;DHT22;35819;44.498;0.166;2022-09-09T04:04:10;17.50;99.90
49327;DHT22;35819;44.498;0.166;2022-09-09T04:06:37;17.50;99.90
49327;DHT22;35819;44.498;0.166;2022-09-09T04:09:03;17.60;99.90
49327;DHT22;35819;44.498;0.166;2022-09-09T04:11:29;17.60;99.90
49327;DHT22;35819;44.498;0.166;2022-09-09T04:13:55;17.60;99.90
49327;DHT22;35819;44.498;0.166;2022-09-09T04:16:21;17.60;99.90
49327;DHT22;35819;44.498;0.166;2022-09-09T04:18:46;17.60;99.90
49327;DHT22;35819;44.498;0.166;2022-09-09T04:21:12;17.70;99.90
49327;DHT22;35819;44.498;0.166;2022-09-09T04:23:38;17.70;99.90
49327;DHT22;35819;44.498;0.166;2022-09-09T04:26:05;17.70;99.90
49327;DHT22;35819;44.498;0.166;2022-09-09T04:28:33;17.70;99.90
49327;DHT22;35819;44.498;0.166;2022-09-09T04:31:07;17.70;99.90
49327;DHT22;35819;44.498;0.166;2022-09-09T04:33:33;17.70;99.90
49327;DHT22;35819;44.498;0.166;2022-09-09T04:35:59;17.70;99.90
49327;DHT22;35819;44.498;0.166;2022-09-09T04:38:25;17.70;99.90
49327;DHT22;35819;44.498;0.166;2022-09-09T04:40:52;17.70;99.90
49327;DHT22;35819;44.498;0.166;2022-09-09T04:43:19;17.70;99.90
49327;DHT22;35819;44.498;0.166;2022-09-09T04:45:49;17.70;99.90
49327;DHT22;35819;44.498;0.166;2022-09-09T04:48:17;17.70;99.90
49327;DHT22;35819;44.498;0.166;2022-09-09T04:50:42;17.70;99.90
49327;DHT22;35819;44.498;0.166;2022-09-09T04:53:08;17.70;99.90
49327;DHT22;35819;44.498;0.166;2022-09-09T04:55:34;17.70;99.90
49327;DHT22;35819;44.498;0.166;2022-09-09T04:58:08;17.70;99.90
49327;DHT22;35819;44.498;0.166;2022-09-09T05:00:35;17.70;99.90
49327;DHT22;35819;44.498;0.166;2022-09-09T05:03:07;17.70;99.90
49327;DHT22;35819;44.498;0.166;2022-09-09T05:05:34;17.60;99.90
49327;DHT22;35819;44.498;0.166;2022-09-09T05:08:03;17.50;99.90
49327;DHT22;35819;44.498;0.166;2022-09-09T05:10:29;17.50;99.90
49327;DHT22;35819;44.498;0.166;2022-09-09T05:12:54;17.50;99.90
49327;DHT22;35819;44.498;0.166;2022-09-09T05:15:20;17.50;99.90
49327;DHT22;35819;44.498;0.166;2022-09-09T05:17:46;17.60;99.90
49327;DHT22;35819;44.498;0.166;2022-09-09T05:20:12;17.60;99.90
49327;DHT22;35819;44.498;0.166;2022-09-09T05:22:38;17.60;99.90
49327;DHT22;35819;44.498;0.166;2022-09-09T05:25:04;17.60;99.90
49327;DHT22;35819;44.498;0.166;2022-09-09T05:27:30;17.60;99.90
49327;DHT22;35819;44.498;0.166;2022-09-09T05:29:58;17.70;99.90
49327;DHT22;35819;44.498;0.166;2022-09-09T05:32:24;17.70;99.90
49327;DHT22;35819;44.498;0.166;2022-09-09T05:34:50;17.70;99.90
49327;DHT22;35819;44.498;0.166;2022-09-09T05:37:16;17.80;99.90
49327;DHT22;35819;44.498;0.166;2022-09-09T05:39:42;17.80;99.90
49327;DHT22;35819;44.498;0.166;2022-09-09T05:42:08;17.80;99.90
49327;DHT22;35819;44.498;0.166;2022-09-09T05:44:33;17.90;99.90
49327;DHT22;35819;44.498;0.166;2022-09-09T05:46:59;17.90;99.90
49327;DHT22;35819;44.498;0.166;2022-09-09T05:49:25;17.90;99.90
49327;DHT22;35819;44.498;0.166;2022-09-09T05:51:51;17.90;99.90
49327;DHT22;35819;44.498;0.166;2022-09-09T05:54:17;17.80;99.90
49327;DHT22;35819;44.498;0.166;2022-09-09T05:56:43;17.80;99.90
49327;DHT22;35819;44.498;0.166;2022-09-09T05:59:08;17.80;99.90
49327;DHT22;35819;44.498;0.166;2022-09-09T06:01:36;17.90;99.90
49327;DHT22;35819;44.498;0.166;2022-09-09T06:04:06;17.90;99.90
49327;DHT22;35819;44.498;0.166;2022-09-09T06:06:34;17.90;99.90
49327;DHT22;35819;44.498;0.166;2022-09-09T06:09:06;17.90;99.90
49327;DHT22;35819;44.498;0.166;2022-09-09T06:11:35;17.90;99.90
49327;DHT22;35819;44.498;0.166;2022-09-09T06:14:01;17.90;99.90
49327;DHT22;35819;44.498;0.166;2022-09-09T06:16:28;18.00;99.90
49327;DHT22;35819;44.498;0.166;2022-09-09T06:18:55;18.10;99.90
49327;DHT22;35819;44.498;0.166;2022-09-09T06:24:15;18.20;99.90
49327;DHT22;35819;44.498;0.166;2022-09-09T06:26:42;18.10;99.90
49327;DHT22;35819;44.498;0.166;2022-09-09T06:29:08;18.20;99.90
49327;DHT22;35819;44.498;0.166;2022-09-09T06:31:35;18.20;99.90
49327;DHT22;35819;44.498;0.166;2022-09-09T06:34:04;18.20;99.90
49327;DHT22;35819;44.498;0.166;2022-09-09T06:36:33;18.30;99.90
49327;DHT22;35819;44.498;0.166;2022-09-09T06:39:00;18.40;99.90
49327;DHT22;35819;44.498;0.166;2022-09-09T06:41:29;18.40;99.90
49327;DHT22;35819;44.498;0.166;2022-09-09T06:43:55;18.50;99.90
49327;DHT22;35819;44.498;0.166;2022-09-09T06:46:23;18.50;99.90
49327;DHT22;35819;44.498;0.166;2022-09-09T06:48:54;18.60;99.90
49327;DHT22;35819;44.498;0.166;2022-09-09T06:51:22;18.60;99.90
49327;DHT22;35819;44.498;0.166;2022-09-09T06:53:51;18.70;99.90
49327;DHT22;35819;44.498;0.166;2022-09-09T06:56:19;18.80;99.90
49327;DHT22;35819;44.498;0.166;2022-09-09T06:58:47;18.90;99.90
49327;DHT22;35819;44.498;0.166;2022-09-09T07:01:18;19.00;99.90
49327;DHT22;35819;44.498;0.166;2022-09-09T07:03:51;19.00;99.90
49327;DHT22;35819;44.498;0.166;2022-09-09T07:06:23;19.10;99.90
49327;DHT22;35819;44.498;0.166;2022-09-09T07:09:08;19.10;99.90
49327;DHT22;35819;44.498;0.166;2022-09-09T07:11:54;19.30;99.90
49327;DHT22;35819;44.498;0.166;2022-09-09T07:14:27;19.30;99.90
49327;DHT22;35819;44.498;0.166;2022-09-09T07:16:53;19.30;99.90
49327;DHT22;35819;44.498;0.166;2022-09-09T07:19:19;19.20;99.90
49327;DHT22;35819;44.498;0.166;2022-09-09T07:21:48;19.10;99.90
49327;DHT22;35819;44.498;0.166;2022-09-09T07:24:24;19.00;99.90
49327;DHT22;35819;44.498;0.166;2022-09-09T07:26:52;19.00;99.90
49327;DHT22;35819;44.498;0.166;2022-09-09T07:29:37;19.00;99.90
49327;DHT22;35819;44.498;0.166;2022-09-09T07:32:23;19.10;99.90
49327;DHT22;35819;44.498;0.166;2022-09-09T07:34:51;19.10;99.90
49327;DHT22;35819;44.498;0.166;2022-09-09T07:37:19;19.20;99.90
49327;DHT22;35819;44.498;0.166;2022-09-09T07:39:54;19.30;99.90
49327;DHT22;35819;44.498;0.166;2022-09-09T07:42:20;19.50;99.90
49327;DHT22;35819;44.498;0.166;2022-09-09T07:44:48;19.70;99.90
49327;DHT22;35819;44.498;0.166;2022-09-09T07:47:16;19.80;99.90
49327;DHT22;35819;44.498;0.166;2022-09-09T07:49:58;20.10;99.90
49327;DHT22;35819;44.498;0.166;2022-09-09T07:52:56;20.30;99.90
49327;DHT22;35819;44.498;0.166;2022-09-09T07:56:19;20.60;99.90
49327;DHT22;35819;44.498;0.166;2022-09-09T07:59:12;20.70;99.90
49327;DHT22;35819;44.498;0.166;2022-09-09T08:02:17;20.70;99.90
49327;DHT22;35819;44.498;0.166;2022-09-09T08:04:56;20.60;99.90
49327;DHT22;35819;44.498;0.166;2022-09-09T08:10:09;20.60;99.90
49327;DHT22;35819;44.498;0.166;2022-09-09T08:13:11;20.80;99.90
49327;DHT22;35819;44.498;0.166;2022-09-09T08:28:57;22.80;99.90
49327;DHT22;35819;44.498;0.166;2022-09-09T08:31:28;22.90;99.90
49327;DHT22;35819;44.498;0.166;2022-09-09T08:33:59;23.00;99.90
49327;DHT22;35819;44.498;0.166;2022-09-09T08:43:31;22.60;99.90
49327;DHT22;35819;44.498;0.166;2022-09-09T09:19:57;23.80;94.80
49327;DHT22;35819;44.498;0.166;2022-09-09T09:22:38;23.80;94.80
49327;DHT22;35819;44.498;0.166;2022-09-09T09:25:27;23.80;94.40
49327;DHT22;35819;44.498;0.166;2022-09-09T09:31:27;24.40;94.00
49327;DHT22;35819;44.498;0.166;2022-09-09T09:33:54;24.60;92.40
49327;DHT22;35819;44.498;0.166;2022-09-09T09:36:46;24.90;91.70
49327;DHT22;35819;44.498;0.166;2022-09-09T09:43:31;24.90;91.60
49327;DHT22;35819;44.498;0.166;2022-09-09T09:46:22;26.40;89.30
49327;DHT22;35819;44.498;0.166;2022-09-09T09:49:05;28.10;83.40
49327;DHT22;35819;44.498;0.166;2022-09-09T09:51:51;29.30;78.70
49327;DHT22;35819;44.498;0.166;2022-09-09T09:54:37;30.40;74.10
49327;DHT22;35819;44.498;0.166;2022-09-09T09:57:53;30.40;71.50
49327;DHT22;35819;44.498;0.166;2022-09-09T10:00:29;31.10;70.20
49327;DHT22;35819;44.498;0.166;2022-09-09T10:02:55;31.60;67.80
49327;DHT22;35819;44.498;0.166;2022-09-09T10:05:26;31.60;66.80
49327;DHT22;35819;44.498;0.166;2022-09-09T10:08:04;32.50;65.30
49327;DHT22;35819;44.498;0.166;2022-09-09T10:13:24;31.50;62.20
49327;DHT22;35819;44.498;0.166;2022-09-09T10:16:01;30.20;64.20
49327;DHT22;35819;44.498;0.166;2022-09-09T10:18:47;30.20;65.30
49327;DHT22;35819;44.498;0.166;2022-09-09T10:21:42;31.60;61.90
49327;DHT22;35819;44.498;0.166;2022-09-09T10:24:32;33.20;58.70
49327;DHT22;35819;44.498;0.166;2022-09-09T10:40:32;32.40;57.10
49327;DHT22;35819;44.498;0.166;2022-09-09T10:57:33;26.70;70.50
49327;DHT22;35819;44.498;0.166;2022-09-09T11:00:24;26.30;70.70
49327;DHT22;35819;44.498;0.166;2022-09-09T11:06:30;29.20;67.90
49327;DHT22;35819;44.498;0.166;2022-09-09T11:09:16;32.10;62.80
49327;DHT22;35819;44.498;0.166;2022-09-09T11:12:10;34.30;57.70
49327;DHT22;35819;44.498;0.166;2022-09-09T11:24:20;37.40;49.30
49327;DHT22;35819;44.498;0.166;2022-09-09T11:30:30;35.70;47.60
49327;DHT22;35819;44.498;0.166;2022-09-09T11:33:34;35.60;47.50
49327;DHT22;35819;44.498;0.166;2022-09-09T11:38:53;37.70;44.00
49327;DHT22;35819;44.498;0.166;2022-09-09T11:41:23;38.60;43.30
49327;DHT22;35819;44.498;0.166;2022-09-09T11:43:51;39.40;41.70
49327;DHT22;35819;44.498;0.166;2022-09-09T11:46:19;39.90;40.90
49327;DHT22;35819;44.498;0.166;2022-09-09T11:48:56;38.60;42.20
49327;DHT22;35819;44.498;0.166;2022-09-09T11:51:26;36.80;43.20
49327;DHT22;35819;44.498;0.166;2022-09-09T11:53:55;34.60;45.50
49327;DHT22;35819;44.498;0.166;2022-09-09T11:56:31;33.00;47.40
49327;DHT22;35819;44.498;0.166;2022-09-09T11:59:00;31.90;49.50
49327;DHT22;35819;44.498;0.166;2022-09-09T12:01:57;30.80;54.50
49327;DHT22;35819;44.498;0.166;2022-09-09T12:07:05;28.90;58.80
49327;DHT22;35819;44.498;0.166;2022-09-09T12:10:18;28.20;60.50
49327;DHT22;35819;44.498;0.166;2022-09-09T12:12:44;27.50;62.10
49327;DHT22;35819;44.498;0.166;2022-09-09T12:20:23;30.90;58.80
49327;DHT22;35819;44.498;0.166;2022-09-09T12:28:20;35.40;51.10
49327;DHT22;35819;44.498;0.166;2022-09-09T12:30:55;34.70;51.90
49327;DHT22;35819;44.498;0.166;2022-09-09T12:33:22;34.40;51.90
49327;DHT22;35819;44.498;0.166;2022-09-09T12:35:55;34.20;51.70
49327;DHT22;35819;44.498;0.166;2022-09-09T12:38:32;33.70;52.20
49327;DHT22;35819;44.498;0.166;2022-09-09T12:40:59;32.90;52.70
49327;DHT22;35819;44.498;0.166;2022-09-09T12:43:26;31.90;53.20
49327;DHT22;35819;44.498;0.166;2022-09-09T12:46:02;31.80;53.90
49327;DHT22;35819;44.498;0.166;2022-09-09T12:48:40;33.10;52.40
49327;DHT22;35819;44.498;0.166;2022-09-09T12:51:29;34.30;50.00
49327;DHT22;35819;44.498;0.166;2022-09-09T12:53:56;33.80;49.90
49327;DHT22;35819;44.498;0.166;2022-09-09T12:56:29;34.40;49.30
49327;DHT22;35819;44.498;0.166;2022-09-09T12:58:59;34.60;48.80
49327;DHT22;35819;44.498;0.166;2022-09-09T13:01:28;34.00;48.90
49327;DHT22;35819;44.498;0.166;2022-09-09T13:03:54;32.90;50.10
49327;DHT22;35819;44.498;0.166;2022-09-09T13:06:28;31.90;52.00
49327;DHT22;35819;44.498;0.166;2022-09-09T13:08:55;31.70;53.00
49327;DHT22;35819;44.498;0.166;2022-09-09T13:12:13;32.10;53.50
49327;DHT22;35819;44.498;0.166;2022-09-09T13:14:53;33.40;52.00
49327;DHT22;35819;44.498;0.166;2022-09-09T13:17:31;35.70;49.40
49327;DHT22;35819;44.498;0.166;2022-09-09T13:20:20;37.60;47.20
49327;DHT22;35819;44.498;0.166;2022-09-09T13:23:00;38.00;45.00
49327;DHT22;35819;44.498;0.166;2022-09-09T13:26:21;36.70;45.70
49327;DHT22;35819;44.498;0.166;2022-09-09T13:29:31;34.80;47.70
49327;DHT22;35819;44.498;0.166;2022-09-09T13:31:47;33.10;49.80
49327;DHT22;35819;44.498;0.166;2022-09-09T13:35:03;32.60;50.10
49327;DHT22;35819;44.498;0.166;2022-09-09T13:37:39;31.80;51.20
49327;DHT22;35819;44.498;0.166;2022-09-09T13:40:18;31.00;52.60
49327;DHT22;35819;44.498;0.166;2022-09-09T13:42:45;31.40;52.20
49327;DHT22;35819;44.498;0.166;2022-09-09T13:45:21;33.20;50.20
49327;DHT22;35819;44.498;0.166;2022-09-09T13:47:48;34.80;48.70
49327;DHT22;35819;44.498;0.166;2022-09-09T13:50:28;35.00;47.80
49327;DHT22;35819;44.498;0.166;2022-09-09T13:52:56;34.00;48.60
49327;DHT22;35819;44.498;0.166;2022-09-09T14:00:35;36.40;46.60
49327;DHT22;35819;44.498;0.166;2022-09-09T14:03:03;37.00;45.50
49327;DHT22;35819;44.498;0.166;2022-09-09T14:05:37;36.00;45.90
49327;DHT22;35819;44.498;0.166;2022-09-09T14:08:39;34.60;47.40
49327;DHT22;35819;44.498;0.166;2022-09-09T14:14:42;35.80;45.50
49327;DHT22;35819;44.498;0.166;2022-09-09T14:17:15;34.70;45.60
49327;DHT22;35819;44.498;0.166;2022-09-09T14:20:07;33.40;46.80
49327;DHT22;35819;44.498;0.166;2022-09-09T14:22:50;31.80;48.50
49327;DHT22;35819;44.498;0.166;2022-09-09T14:26:01;30.80;49.60
49327;DHT22;35819;44.498;0.166;2022-09-09T14:28:31;30.10;50.40
49327;DHT22;35819;44.498;0.166;2022-09-09T14:31:14;30.50;50.40
49327;DHT22;35819;44.498;0.166;2022-09-09T14:33:40;31.30;49.40
49327;DHT22;35819;44.498;0.166;2022-09-09T14:36:10;30.90;50.10
49327;DHT22;35819;44.498;0.166;2022-09-09T14:38:41;30.70;50.60
49327;DHT22;35819;44.498;0.166;2022-09-09T14:41:12;31.20;48.90
49327;DHT22;35819;44.498;0.166;2022-09-09T14:43:59;31.10;49.20
49327;DHT22;35819;44.498;0.166;2022-09-09T14:46:38;31.80;48.70
49327;DHT22;35819;44.498;0.166;2022-09-09T14:51:48;31.50;48.90
49327;DHT22;35819;44.498;0.166;2022-09-09T14:54:42;31.40;49.00
49327;DHT22;35819;44.498;0.166;2022-09-09T14:57:31;31.40;49.50
49327;DHT22;35819;44.498;0.166;2022-09-09T14:59:57;32.10;48.90
49327;DHT22;35819;44.498;0.166;2022-09-09T15:02:23;32.50;48.50
49327;DHT22;35819;44.498;0.166;2022-09-09T15:04:51;33.50;47.60
49327;DHT22;35819;44.498;0.166;2022-09-09T15:07:18;34.20;46.50
49327;DHT22;35819;44.498;0.166;2022-09-09T15:09:45;33.90;46.70
49327;DHT22;35819;44.498;0.166;2022-09-09T15:12:15;34.00;46.90
49327;DHT22;35819;44.498;0.166;2022-09-09T15:14:44;33.90;47.00
49327;DHT22;35819;44.498;0.166;2022-09-09T15:17:19;33.60;46.90
49327;DHT22;35819;44.498;0.166;2022-09-09T15:19:45;32.50;47.90
49327;DHT22;35819;44.498;0.166;2022-09-09T15:22:11;32.10;48.90
49327;DHT22;35819;44.498;0.166;2022-09-09T15:24:37;32.00;48.50
49327;DHT22;35819;44.498;0.166;2022-09-09T15:27:03;31.40;49.10
49327;DHT22;35819;44.498;0.166;2022-09-09T15:29:29;30.50;50.30
49327;DHT22;35819;44.498;0.166;2022-09-09T15:31:57;29.70;51.30
49327;DHT22;35819;44.498;0.166;2022-09-09T15:34:22;29.50;52.00
49327;DHT22;35819;44.498;0.166;2022-09-09T15:36:48;30.30;51.50
49327;DHT22;35819;44.498;0.166;2022-09-09T15:39:16;31.40;49.80
49327;DHT22;35819;44.498;0.166;2022-09-09T15:41:43;32.40;48.70
49327;DHT22;35819;44.498;0.166;2022-09-09T15:44:10;32.80;47.80
49327;DHT22;35819;44.498;0.166;2022-09-09T15:46:39;32.70;47.60
49327;DHT22;35819;44.498;0.166;2022-09-09T15:49:09;31.60;48.80
49327;DHT22;35819;44.498;0.166;2022-09-09T15:51:37;30.50;50.30
49327;DHT22;35819;44.498;0.166;2022-09-09T15:54:03;30.20;51.10
49327;DHT22;35819;44.498;0.166;2022-09-09T15:56:32;30.70;50.40
49327;DHT22;35819;44.498;0.166;2022-09-09T15:59:01;31.50;49.40
49327;DHT22;35819;44.498;0.166;2022-09-09T16:01:29;32.20;48.80
49327;DHT22;35819;44.498;0.166;2022-09-09T16:03:56;32.60;48.60
49327;DHT22;35819;44.498;0.166;2022-09-09T16:06:23;32.90;48.00
49327;DHT22;35819;44.498;0.166;2022-09-09T16:08:51;33.00;48.00
49327;DHT22;35819;44.498;0.166;2022-09-09T16:11:23;33.10;48.10
49327;DHT22;35819;44.498;0.166;2022-09-09T16:13:50;33.20;47.90
49327;DHT22;35819;44.498;0.166;2022-09-09T16:16:19;32.70;48.50
49327;DHT22;35819;44.498;0.166;2022-09-09T16:18:52;31.70;50.00
49327;DHT22;35819;44.498;0.166;2022-09-09T16:21:20;30.70;50.80
49327;DHT22;35819;44.498;0.166;2022-09-09T16:23:46;29.90;52.00
49327;DHT22;35819;44.498;0.166;2022-09-09T16:26:15;29.40;52.80
49327;DHT22;35819;44.498;0.166;2022-09-09T16:28:42;29.20;53.00
49327;DHT22;35819;44.498;0.166;2022-09-09T16:31:17;29.50;52.70
49327;DHT22;35819;44.498;0.166;2022-09-09T16:33:44;29.70;52.30
49327;DHT22;35819;44.498;0.166;2022-09-09T16:36:12;29.40;52.30
49327;DHT22;35819;44.498;0.166;2022-09-09T16:38:39;28.90;53.00
49327;DHT22;35819;44.498;0.166;2022-09-09T16:41:06;28.70;53.50
49327;DHT22;35819;44.498;0.166;2022-09-09T16:43:39;28.80;53.50
49327;DHT22;35819;44.498;0.166;2022-09-09T16:46:16;28.90;53.00
49327;DHT22;35819;44.498;0.166;2022-09-09T16:48:44;28.60;53.10
49327;DHT22;35819;44.498;0.166;2022-09-09T16:51:17;28.20;53.80
49327;DHT22;35819;44.498;0.166;2022-09-09T16:53:44;27.70;54.90
49327;DHT22;35819;44.498;0.166;2022-09-09T16:56:16;27.20;55.60
49327;DHT22;35819;44.498;0.166;2022-09-09T16:58:43;26.80;56.50
49327;DHT22;35819;44.498;0.166;2022-09-09T17:01:12;26.80;56.60
49327;DHT22;35819;44.498;0.166;2022-09-09T17:03:39;27.00;56.50
49327;DHT22;35819;44.498;0.166;2022-09-09T17:06:10;27.30;56.20
49327;DHT22;35819;44.498;0.166;2022-09-09T17:08:37;27.60;55.50
49327;DHT22;35819;44.498;0.166;2022-09-09T17:11:11;27.80;55.10
49327;DHT22;35819;44.498;0.166;2022-09-09T17:13:40;27.80;54.90
49327;DHT22;35819;44.498;0.166;2022-09-09T17:16:06;27.90;55.00
49327;DHT22;35819;44.498;0.166;2022-09-09T17:18:32;27.90;55.10
49327;DHT22;35819;44.498;0.166;2022-09-09T17:21:03;27.70;55.00
49327;DHT22;35819;44.498;0.166;2022-09-09T17:23:29;27.60;55.60
49327;DHT22;35819;44.498;0.166;2022-09-09T17:25:59;27.40;56.30
49327;DHT22;35819;44.498;0.166;2022-09-09T17:28:26;27.10;56.80
49327;DHT22;35819;44.498;0.166;2022-09-09T17:31:00;26.60;58.10
49327;DHT22;35819;44.498;0.166;2022-09-09T17:33:28;26.20;58.30
49327;DHT22;35819;44.498;0.166;2022-09-09T17:35:58;25.70;58.80
49327;DHT22;35819;44.498;0.166;2022-09-09T17:38:25;25.40;59.60
49327;DHT22;35819;44.498;0.166;2022-09-09T17:43:35;24.70;60.80
49327;DHT22;35819;44.498;0.166;2022-09-09T17:48:49;24.20;62.00
49327;DHT22;35819;44.498;0.166;2022-09-09T17:51:17;23.90;62.60
49327;DHT22;35819;44.498;0.166;2022-09-09T17:53:48;23.80;63.10
49327;DHT22;35819;44.498;0.166;2022-09-09T17:56:17;23.60;63.40
49327;DHT22;35819;44.498;0.166;2022-09-09T17:58:45;23.40;63.90
49327;DHT22;35819;44.498;0.166;2022-09-09T18:01:14;23.20;64.30
49327;DHT22;35819;44.498;0.166;2022-09-09T18:03:41;23.00;64.20
49327;DHT22;35819;44.498;0.166;2022-09-09T18:06:10;22.90;64.40
49327;DHT22;35819;44.498;0.166;2022-09-09T18:08:39;22.70;64.70
49327;DHT22;35819;44.498;0.166;2022-09-09T18:11:06;22.60;65.40
49327;DHT22;35819;44.498;0.166;2022-09-09T18:13:33;22.50;66.00
49327;DHT22;35819;44.498;0.166;2022-09-09T18:15:59;22.30;66.60
49327;DHT22;35819;44.498;0.166;2022-09-09T18:18:26;22.20;67.10
49327;DHT22;35819;44.498;0.166;2022-09-09T18:21:04;22.10;67.60
49327;DHT22;35819;44.498;0.166;2022-09-09T18:23:35;21.90;68.20
49327;DHT22;35819;44.498;0.166;2022-09-09T18:26:07;21.80;68.50
49327;DHT22;35819;44.498;0.166;2022-09-09T18:28:35;21.70;69.20
49327;DHT22;35819;44.498;0.166;2022-09-09T18:31:05;21.60;69.80
49327;DHT22;35819;44.498;0.166;2022-09-09T18:33:34;21.50;70.20
49327;DHT22;35819;44.498;0.166;2022-09-09T18:36:06;21.40;70.90
49327;DHT22;35819;44.498;0.166;2022-09-09T18:38:33;21.40;71.20
49327;DHT22;35819;44.498;0.166;2022-09-09T18:41:01;21.30;71.40
49327;DHT22;35819;44.498;0.166;2022-09-09T18:43:36;21.20;71.90
49327;DHT22;35819;44.498;0.166;2022-09-09T18:46:03;21.20;72.60
49327;DHT22;35819;44.498;0.166;2022-09-09T18:48:32;21.10;73.00
49327;DHT22;35819;44.498;0.166;2022-09-09T18:51:03;21.00;73.60
49327;DHT22;35819;44.498;0.166;2022-09-09T18:53:29;21.00;74.50
49327;DHT22;35819;44.498;0.166;2022-09-09T18:56:05;20.90;74.90
49327;DHT22;35819;44.498;0.166;2022-09-09T18:58:32;20.80;75.50
49327;DHT22;35819;44.498;0.166;2022-09-09T19:00:59;20.80;76.10
49327;DHT22;35819;44.498;0.166;2022-09-09T19:03:26;20.70;76.50
49327;DHT22;35819;44.498;0.166;2022-09-09T19:05:52;20.60;76.90
49327;DHT22;35819;44.498;0.166;2022-09-09T19:08:19;20.50;77.40